createdAt,value
2018-05-29T00:02:19.437Z,24.30
2018-05-29T00:04:46.886Z,24.26
2018-05-29T00:07:14.280Z,24.22
2018-05-29T00:09:41.681Z,24.18
2018-05-29T00:12:09.097Z,24.14
2018-05-29T00:14:36.503Z,24.13
2018-05-29T00:17:03.913Z,24.09
2018-05-29T00:19:31.321Z,24.06
2018-05-29T00:21:58.737Z,24.02
2018-05-29T00:24:26.145Z,23.97
2018-05-29T00:26:53.550Z,23.93
2018-05-29T00:29:20.957Z,23.90
2018-05-29T00:31:48.357Z,23.85
2018-05-29T00:34:15.748Z,23.82
2018-05-29T00:36:43.165Z,23.80
2018-05-29T00:39:10.557Z,23.77
2018-05-29T00:41:37.969Z,23.75
2018-05-29T00:44:05.373Z,23.73
2018-05-29T00:46:32.777Z,23.69
2018-05-29T00:49:00.177Z,23.68
2018-05-29T00:51:27.609Z,23.64
2018-05-29T00:53:54.993Z,23.61
2018-05-29T00:56:22.405Z,23.58
2018-05-29T00:58:49.805Z,23.57
2018-05-29T01:01:17.209Z,23.57
2018-05-29T01:03:44.605Z,23.58
2018-05-29T01:06:12.021Z,23.58
2018-05-29T01:08:39.417Z,23.58
2018-05-29T01:11:06.813Z,23.56
2018-05-29T01:13:34.225Z,23.54
2018-05-29T01:16:01.617Z,23.51
2018-05-29T01:18:29.022Z,23.48
2018-05-29T01:20:56.442Z,23.47
2018-05-29T01:23:23.837Z,23.46
2018-05-29T01:25:51.237Z,23.43
2018-05-29T01:28:18.646Z,23.39
2018-05-29T01:30:46.045Z,23.38
2018-05-29T01:33:13.440Z,23.36
2018-05-29T01:35:40.882Z,23.38
2018-05-29T01:38:08.278Z,23.36
2018-05-29T01:40:35.681Z,23.37
2018-05-29T01:43:03.086Z,23.35
2018-05-29T01:45:30.486Z,23.33
2018-05-29T01:47:57.881Z,23.31
2018-05-29T01:50:25.281Z,23.31
2018-05-29T01:52:52.681Z,23.29
2018-05-29T01:55:20.077Z,23.28
2018-05-29T01:57:47.481Z,23.27
2018-05-29T02:00:14.879Z,23.23
2018-05-29T02:02:42.302Z,23.18
2018-05-29T02:05:09.726Z,23.11
2018-05-29T02:07:37.129Z,23.06
2018-05-29T02:10:04.533Z,23.02
2018-05-29T02:12:31.934Z,22.93
2018-05-29T02:14:59.345Z,22.90
2018-05-29T02:17:26.747Z,22.85
2018-05-29T02:19:54.146Z,22.83
2018-05-29T02:22:21.545Z,22.79
2018-05-29T02:24:48.941Z,22.81
2018-05-29T02:27:16.357Z,22.83
2018-05-29T02:29:43.749Z,22.83
2018-05-29T02:32:11.146Z,22.82
2018-05-29T02:34:38.553Z,22.81
2018-05-29T02:37:05.945Z,22.80
2018-05-29T02:39:33.353Z,22.78
2018-05-29T02:42:00.768Z,22.78
2018-05-29T02:44:28.155Z,22.76
2018-05-29T02:46:55.566Z,22.76
2018-05-29T02:49:22.965Z,22.74
2018-05-29T02:51:50.372Z,22.70
2018-05-29T02:54:17.769Z,22.69
2018-05-29T02:56:45.169Z,22.68
2018-05-29T02:59:12.577Z,22.66
2018-05-29T03:01:39.981Z,22.65
2018-05-29T03:04:07.384Z,22.61
2018-05-29T03:06:34.826Z,22.60
2018-05-29T03:09:02.212Z,22.58
2018-05-29T03:11:29.625Z,22.56
2018-05-29T03:13:57.024Z,22.53
2018-05-29T03:16:24.429Z,22.50
2018-05-29T03:18:51.829Z,22.50
2018-05-29T03:21:19.225Z,22.48
2018-05-29T03:23:46.634Z,22.46
2018-05-29T03:26:14.033Z,22.45
2018-05-29T03:28:41.447Z,22.45
2018-05-29T03:31:08.839Z,22.44
2018-05-29T03:33:36.241Z,22.42
2018-05-29T03:36:03.648Z,22.38
2018-05-29T03:38:31.045Z,22.36
2018-05-29T03:40:58.468Z,22.31
2018-05-29T03:43:25.872Z,22.22
2018-05-29T03:45:53.269Z,22.19
2018-05-29T03:48:20.699Z,22.18
2018-05-29T03:50:48.106Z,22.18
2018-05-29T03:53:15.519Z,22.21
2018-05-29T03:55:42.917Z,22.24
2018-05-29T03:58:10.325Z,22.27
2018-05-29T04:00:37.725Z,22.27
2018-05-29T04:03:05.145Z,22.19
2018-05-29T04:05:32.553Z,22.13
2018-05-29T04:07:59.950Z,22.07
2018-05-29T04:10:28.193Z,22.07
2018-05-29T04:12:55.678Z,22.05
2018-05-29T04:15:23.132Z,22.06
2018-05-29T04:17:50.887Z,22.08
2018-05-29T04:20:18.867Z,22.10
2018-05-29T04:22:46.261Z,22.10
2018-05-29T04:25:13.677Z,22.12
2018-05-29T04:27:41.079Z,22.13
2018-05-29T04:30:08.481Z,22.16
2018-05-29T04:32:35.878Z,22.19
2018-05-29T04:35:03.276Z,22.21
2018-05-29T04:37:30.687Z,22.26
2018-05-29T04:39:58.081Z,22.31
2018-05-29T04:42:25.889Z,22.34
2018-05-29T04:44:53.285Z,22.40
2018-05-29T04:47:20.689Z,22.42
2018-05-29T04:49:48.094Z,22.44
2018-05-29T04:52:15.493Z,22.47
2018-05-29T04:54:42.901Z,22.50
2018-05-29T04:57:10.305Z,22.52
2018-05-29T04:59:37.713Z,22.54
2018-05-29T05:02:05.117Z,22.55
2018-05-29T05:04:32.509Z,22.56
2018-05-29T05:06:59.957Z,22.56
2018-05-29T05:09:27.342Z,22.57
2018-05-29T05:11:54.737Z,22.56
2018-05-29T05:14:22.137Z,22.57
2018-05-29T05:16:49.537Z,22.58
2018-05-29T05:19:16.945Z,22.57
2018-05-29T05:21:44.349Z,22.58
2018-05-29T05:24:11.742Z,22.60
2018-05-29T05:26:39.145Z,22.61
2018-05-29T05:29:06.545Z,22.61
2018-05-29T05:31:34.052Z,22.62
2018-05-29T05:34:01.477Z,22.64
2018-05-29T05:36:29.093Z,22.67
2018-05-29T05:38:56.498Z,22.69
2018-05-29T05:41:23.904Z,22.71
2018-05-29T05:43:51.309Z,22.72
2018-05-29T05:46:18.706Z,22.74
2018-05-29T05:48:46.114Z,22.76
2018-05-29T05:51:13.513Z,22.81
2018-05-29T05:53:40.905Z,22.85
2018-05-29T05:56:08.316Z,22.88
2018-05-29T05:58:35.709Z,22.93
2018-05-29T06:01:03.118Z,22.96
2018-05-29T06:03:30.537Z,23.00
2018-05-29T06:05:57.929Z,23.05
2018-05-29T06:08:25.338Z,23.08
2018-05-29T06:10:52.741Z,23.12
2018-05-29T06:13:20.153Z,23.15
2018-05-29T06:15:47.553Z,23.18
2018-05-29T06:18:14.962Z,23.20
2018-05-29T06:20:42.363Z,23.23
2018-05-29T06:23:09.769Z,23.25
2018-05-29T06:25:37.171Z,23.27
2018-05-29T06:28:04.573Z,23.30
2018-05-29T06:30:32.037Z,23.32
2018-05-29T06:32:59.436Z,23.35
2018-05-29T06:35:27.229Z,23.38
2018-05-29T06:37:54.623Z,23.41
2018-05-29T06:40:22.017Z,23.43
2018-05-29T06:42:49.430Z,23.45
2018-05-29T06:45:16.837Z,23.47
2018-05-29T06:47:44.477Z,23.49
2018-05-29T06:50:11.877Z,23.51
2018-05-29T06:52:39.299Z,23.53
2018-05-29T06:55:06.684Z,23.57
2018-05-29T06:57:34.077Z,23.60
2018-05-29T07:00:01.483Z,23.64
2018-05-29T07:02:28.877Z,23.66
2018-05-29T07:04:56.289Z,23.70
2018-05-29T07:07:23.718Z,23.72
2018-05-29T07:09:51.097Z,23.76
2018-05-29T07:12:18.550Z,23.79
2018-05-29T07:14:45.972Z,23.82
2018-05-29T07:17:13.389Z,23.85
2018-05-29T07:19:40.788Z,23.88
2018-05-29T07:22:08.197Z,23.91
2018-05-29T07:24:35.628Z,23.94
2018-05-29T07:27:03.003Z,23.98
2018-05-29T07:29:30.413Z,24.03
2018-05-29T07:31:57.813Z,24.07
2018-05-29T07:34:25.500Z,24.10
2018-05-29T07:36:52.886Z,24.13
2018-05-29T07:39:20.285Z,24.16
2018-05-29T07:41:47.693Z,24.21
2018-05-29T07:44:15.105Z,24.26
2018-05-29T07:46:42.817Z,24.32
2018-05-29T07:49:10.221Z,24.35
2018-05-29T07:51:37.627Z,24.37
2018-05-29T07:54:05.026Z,24.40
2018-05-29T07:56:32.424Z,24.43
2018-05-29T07:59:00.164Z,24.46
2018-05-29T08:01:27.549Z,24.48
2018-05-29T08:03:54.945Z,24.52
2018-05-29T08:06:22.370Z,24.56
2018-05-29T08:08:49.748Z,24.59
2018-05-29T08:11:17.165Z,24.63
2018-05-29T08:13:44.561Z,24.65
2018-05-29T08:16:11.966Z,24.67
2018-05-29T08:18:39.396Z,24.72
2018-05-29T08:21:06.761Z,24.75
2018-05-29T08:23:34.541Z,24.78
2018-05-29T08:26:01.933Z,24.81
2018-05-29T08:28:29.337Z,24.83
2018-05-29T08:30:56.760Z,24.85
2018-05-29T08:33:24.149Z,24.87
2018-05-29T08:35:51.556Z,24.91
2018-05-29T08:38:18.963Z,24.95
2018-05-29T08:40:46.357Z,24.99
2018-05-29T08:43:13.767Z,25.04
2018-05-29T08:45:41.186Z,25.10
2018-05-29T08:48:08.591Z,25.16
2018-05-29T08:50:35.986Z,25.22
2018-05-29T08:53:03.391Z,25.25
2018-05-29T08:55:30.781Z,25.28
2018-05-29T08:57:58.185Z,25.33
2018-05-29T09:00:25.582Z,25.37
2018-05-29T09:02:52.977Z,25.41
2018-05-29T09:05:20.386Z,25.45
2018-05-29T09:07:47.785Z,25.47
2018-05-29T09:10:15.189Z,25.49
2018-05-29T09:12:42.585Z,25.52
2018-05-29T09:15:09.995Z,25.56
2018-05-29T09:17:37.399Z,25.56
2018-05-29T09:20:04.827Z,25.62
2018-05-29T09:22:32.202Z,25.68
2018-05-29T09:24:59.598Z,25.73
2018-05-29T09:27:27.000Z,25.79
2018-05-29T09:29:54.418Z,25.82
2018-05-29T09:32:21.822Z,25.84
2018-05-29T09:34:49.222Z,25.86
2018-05-29T09:37:16.625Z,25.89
2018-05-29T09:39:44.048Z,25.90
2018-05-29T09:42:11.437Z,25.94
2018-05-29T09:44:38.881Z,25.96
2018-05-29T09:47:06.247Z,26.01
2018-05-29T09:49:33.649Z,26.05
2018-05-29T09:52:01.051Z,26.08
2018-05-29T09:54:28.487Z,26.10
2018-05-29T09:56:55.845Z,26.17
2018-05-29T09:59:23.262Z,26.21
2018-05-29T10:01:50.673Z,26.28
2018-05-29T10:04:18.072Z,26.32
2018-05-29T10:06:45.481Z,26.39
2018-05-29T10:09:12.882Z,26.41
2018-05-29T10:11:40.278Z,26.46
2018-05-29T10:14:07.685Z,26.50
2018-05-29T10:16:35.081Z,26.54
2018-05-29T10:19:02.497Z,26.59
2018-05-29T10:21:29.912Z,26.65
2018-05-29T10:23:57.679Z,26.66
2018-05-29T10:26:25.070Z,26.68
2018-05-29T10:28:52.469Z,26.69
2018-05-29T10:31:19.873Z,26.70
2018-05-29T10:33:47.274Z,26.72
2018-05-29T10:36:14.692Z,26.72
2018-05-29T10:38:42.082Z,26.73
2018-05-29T10:41:09.489Z,26.76
2018-05-29T10:43:36.881Z,26.79
2018-05-29T10:46:04.307Z,26.85
2018-05-29T10:48:31.683Z,26.94
2018-05-29T10:50:59.134Z,27.08
2018-05-29T10:53:26.933Z,27.24
2018-05-29T10:55:54.329Z,27.42
2018-05-29T10:58:21.721Z,27.58
2018-05-29T11:00:49.590Z,27.69
2018-05-29T11:03:16.986Z,27.80
2018-05-29T11:05:44.389Z,27.94
2018-05-29T11:08:11.814Z,28.14
2018-05-29T11:10:39.215Z,28.39
2018-05-29T11:13:06.609Z,28.57
2018-05-29T11:15:34.019Z,28.73
2018-05-29T11:18:01.421Z,28.83
2018-05-29T11:20:28.817Z,28.89
2018-05-29T11:22:56.232Z,28.90
2018-05-29T11:25:23.626Z,28.94
2018-05-29T11:27:51.373Z,28.90
2018-05-29T11:30:18.765Z,28.91
2018-05-29T11:32:46.168Z,29.00
2018-05-29T11:35:13.582Z,29.14
2018-05-29T11:37:40.978Z,29.25
2018-05-29T11:40:08.377Z,29.36
2018-05-29T11:42:35.787Z,29.47
2018-05-29T11:45:03.197Z,29.64
2018-05-29T11:47:30.596Z,29.77
2018-05-29T11:49:57.985Z,29.86
2018-05-29T11:52:25.405Z,29.87
2018-05-29T11:54:52.833Z,29.99
2018-05-29T11:57:20.193Z,30.13
2018-05-29T11:59:47.841Z,30.24
2018-05-29T12:02:15.338Z,30.30
2018-05-29T12:04:42.737Z,30.44
2018-05-29T12:07:10.133Z,30.60
2018-05-29T12:09:37.602Z,30.74
2018-05-29T12:12:16.797Z,30.96
2018-05-29T12:14:44.553Z,31.04
2018-05-29T12:17:11.951Z,31.09
2018-05-29T12:19:39.341Z,31.19
2018-05-29T12:22:06.761Z,31.29
2018-05-29T12:24:34.170Z,31.45
2018-05-29T12:27:01.577Z,31.48
2018-05-29T12:29:28.969Z,31.52
2018-05-29T12:31:56.383Z,31.49
2018-05-29T12:34:23.823Z,31.61
2018-05-29T12:36:51.177Z,31.77
2018-05-29T12:39:18.577Z,31.87
2018-05-29T12:41:45.981Z,32.05
2018-05-29T12:44:13.407Z,32.31
2018-05-29T12:46:40.833Z,32.44
2018-05-29T12:49:08.237Z,32.45
2018-05-29T12:51:35.655Z,32.39
2018-05-29T12:54:03.047Z,32.33
2018-05-29T12:56:30.465Z,32.32
2018-05-29T12:58:57.857Z,32.32
2018-05-29T13:01:25.261Z,32.29
2018-05-29T13:03:52.654Z,32.27
2018-05-29T13:06:20.054Z,32.25
2018-05-29T13:08:47.468Z,32.14
2018-05-29T13:11:14.930Z,32.06
2018-05-29T13:13:42.270Z,32.06
2018-05-29T13:16:09.679Z,32.17
2018-05-29T13:18:37.081Z,32.23
2018-05-29T13:21:04.476Z,32.28
2018-05-29T13:23:32.183Z,32.35
2018-05-29T13:25:59.581Z,32.36
2018-05-29T13:28:26.973Z,32.28
2018-05-29T13:30:54.388Z,32.04
2018-05-29T13:33:21.788Z,31.72
2018-05-29T13:35:49.185Z,31.39
2018-05-29T13:38:16.583Z,31.07
2018-05-29T13:40:43.987Z,30.88
2018-05-29T13:43:11.382Z,30.67
2018-05-29T13:45:38.864Z,30.48
2018-05-29T13:48:06.250Z,30.37
2018-05-29T13:50:33.694Z,30.25
2018-05-29T13:53:01.114Z,30.13
2018-05-29T13:55:28.501Z,30.03
2018-05-29T13:57:55.911Z,29.91
2018-05-29T14:00:23.298Z,29.78
2018-05-29T14:02:51.055Z,29.68
2018-05-29T14:05:18.449Z,29.40
2018-05-29T14:07:45.915Z,28.99
2018-05-29T14:10:13.317Z,28.51
2018-05-29T14:12:40.721Z,28.07
2018-05-29T14:15:08.129Z,27.82
2018-05-29T14:17:35.525Z,27.50
2018-05-29T14:20:03.236Z,27.34
2018-05-29T14:22:30.646Z,26.87
2018-05-29T14:24:58.037Z,26.75
2018-05-29T14:27:25.430Z,26.66
2018-05-29T14:29:52.921Z,26.62
2018-05-29T14:32:20.348Z,26.60
2018-05-29T14:34:47.734Z,26.55
2018-05-29T14:37:15.133Z,26.50
2018-05-29T14:39:42.528Z,26.48
2018-05-29T14:42:09.925Z,26.37
2018-05-29T14:44:37.317Z,26.26
2018-05-29T14:47:04.741Z,26.26
2018-05-29T14:49:32.142Z,26.23
2018-05-29T14:51:59.533Z,26.19
2018-05-29T14:54:26.937Z,26.16
2018-05-29T14:56:54.370Z,26.16
2018-05-29T14:59:21.765Z,26.12
2018-05-29T15:01:49.169Z,26.04
2018-05-29T15:04:16.565Z,25.90
2018-05-29T15:06:43.977Z,25.78
2018-05-29T15:09:11.442Z,25.63
2018-05-29T15:11:38.781Z,25.51
2018-05-29T15:14:06.189Z,25.35
2018-05-29T15:16:33.582Z,25.20
2018-05-29T15:19:00.993Z,25.08
2018-05-29T15:21:28.396Z,25.00
2018-05-29T15:23:55.782Z,24.94
2018-05-29T15:26:23.181Z,24.81
2018-05-29T15:28:50.573Z,24.60
2018-05-29T15:31:17.971Z,24.53
2018-05-29T15:33:45.353Z,24.53
2018-05-29T15:36:12.758Z,24.51
2018-05-29T15:38:40.148Z,24.46
2018-05-29T15:41:07.527Z,24.43
2018-05-29T15:43:34.933Z,24.45
2018-05-29T15:46:02.327Z,24.45
2018-05-29T15:48:29.950Z,24.43
2018-05-29T15:50:57.379Z,24.42
2018-05-29T15:53:24.793Z,24.43
2018-05-29T15:55:52.193Z,24.45
2018-05-29T15:58:19.590Z,24.41
2018-05-29T16:00:46.986Z,24.39
2018-05-29T16:03:14.373Z,24.30
2018-05-29T16:05:41.775Z,24.25
2018-05-29T16:08:09.213Z,24.26
2018-05-29T16:10:37.005Z,24.27
2018-05-29T16:13:04.392Z,24.26
2018-05-29T16:15:31.781Z,24.24
2018-05-29T16:17:59.176Z,24.18
2018-05-29T16:20:26.561Z,24.17
2018-05-29T16:22:53.969Z,24.18
2018-05-29T16:25:21.373Z,24.21
2018-05-29T16:27:48.765Z,24.24
2018-05-29T16:30:16.153Z,24.23
2018-05-29T16:32:43.576Z,24.24
2018-05-29T16:35:10.965Z,24.21
2018-05-29T16:37:38.369Z,24.18
2018-05-29T16:40:05.759Z,24.18
2018-05-29T16:42:33.168Z,24.21
2018-05-29T16:45:00.575Z,24.20
2018-05-29T16:47:27.969Z,24.21
2018-05-29T16:49:55.373Z,24.24
2018-05-29T16:52:22.781Z,24.27
2018-05-29T16:54:50.182Z,24.28
2018-05-29T16:57:17.589Z,24.24
2018-05-29T16:59:44.993Z,24.19
2018-05-29T17:02:12.389Z,24.15
2018-05-29T17:04:39.859Z,24.09
2018-05-29T17:07:07.232Z,24.00
2018-05-29T17:09:34.609Z,23.97
2018-05-29T17:12:02.017Z,24.00
2018-05-29T17:14:29.419Z,24.05
2018-05-29T17:16:56.817Z,24.07
2018-05-29T17:19:24.273Z,24.09
2018-05-29T17:21:51.689Z,24.12
2018-05-29T17:24:19.107Z,24.10
2018-05-29T17:26:46.501Z,24.08
2018-05-29T17:29:13.905Z,24.09
2018-05-29T17:31:41.302Z,24.09
2018-05-29T17:34:08.709Z,24.07
2018-05-29T17:36:36.100Z,24.06
2018-05-29T17:39:03.523Z,24.09
2018-05-29T17:41:30.910Z,24.11
2018-05-29T17:43:58.357Z,24.11
2018-05-29T17:46:25.756Z,24.12
2018-05-29T17:48:53.425Z,24.14
2018-05-29T17:51:20.821Z,24.17
2018-05-29T17:53:48.217Z,24.15
2018-05-29T17:56:15.639Z,24.15
2018-05-29T17:58:43.025Z,24.15
2018-05-29T18:01:10.429Z,24.18
2018-05-29T18:03:37.829Z,24.16
2018-05-29T18:06:05.236Z,24.12
2018-05-29T18:08:32.625Z,24.11
2018-05-29T18:11:00.037Z,24.10
2018-05-29T18:13:27.429Z,24.10
2018-05-29T18:15:54.841Z,24.08
2018-05-29T18:18:22.249Z,24.08
2018-05-29T18:20:49.707Z,24.05
2018-05-29T18:23:17.065Z,24.07
2018-05-29T18:25:44.461Z,24.05
2018-05-29T18:28:11.865Z,24.04
2018-05-29T18:30:39.277Z,24.03
2018-05-29T18:33:06.691Z,24.00
2018-05-29T18:35:34.081Z,23.98
2018-05-29T18:38:01.481Z,23.99
2018-05-29T18:40:28.901Z,24.00
2018-05-29T18:42:56.293Z,23.97
2018-05-29T18:45:23.707Z,23.95
2018-05-29T18:47:51.114Z,23.94
2018-05-29T18:50:18.601Z,23.94
2018-05-29T18:52:45.929Z,23.94
2018-05-29T18:55:13.675Z,23.93
2018-05-29T18:57:41.150Z,23.93
2018-05-29T19:00:08.540Z,23.91
2018-05-29T19:02:35.963Z,23.90
2018-05-29T19:05:03.401Z,23.89
2018-05-29T19:07:30.807Z,23.88
2018-05-29T19:09:58.241Z,23.86
2018-05-29T19:12:25.641Z,23.83
2018-05-29T19:14:53.942Z,23.83
2018-05-29T19:17:21.355Z,23.82
2018-05-29T19:19:48.761Z,23.81
2018-05-29T19:22:16.184Z,23.80
2018-05-29T19:24:43.586Z,23.78
2018-05-29T19:27:10.982Z,23.77
2018-05-29T19:29:38.387Z,23.76
2018-05-29T19:32:05.781Z,23.75
2018-05-29T19:34:33.185Z,23.74
2018-05-29T19:37:00.585Z,23.72
2018-05-29T19:39:27.980Z,23.73
2018-05-29T19:41:55.410Z,23.73
2018-05-29T19:44:22.823Z,23.75
2018-05-29T19:46:50.217Z,23.74
2018-05-29T19:49:17.637Z,23.72
2018-05-29T19:51:45.042Z,23.71
2018-05-29T19:54:12.421Z,23.68
2018-05-29T19:56:39.834Z,23.67
2018-05-29T19:59:07.226Z,23.65
2018-05-29T20:01:34.869Z,23.63
2018-05-29T20:04:02.257Z,23.62
2018-05-29T20:06:29.653Z,23.61
2018-05-29T20:08:57.053Z,23.58
2018-05-29T20:11:24.446Z,23.55
2018-05-29T20:13:51.838Z,23.50
2018-05-29T20:16:19.233Z,23.49
2018-05-29T20:18:46.681Z,23.47
2018-05-29T20:21:14.067Z,23.44
2018-05-29T20:23:41.498Z,23.42
2018-05-29T20:26:08.911Z,23.41
2018-05-29T20:28:36.277Z,23.40
2018-05-29T20:31:03.689Z,23.38
2018-05-29T20:33:31.069Z,23.37
2018-05-29T20:35:58.472Z,23.35
2018-05-29T20:38:25.881Z,23.31
2018-05-29T20:40:53.261Z,23.29
2018-05-29T20:43:20.661Z,23.27
2018-05-29T20:45:48.061Z,23.26
2018-05-29T20:48:15.452Z,23.23
2018-05-29T20:50:42.837Z,23.20
2018-05-29T20:53:10.237Z,23.19
2018-05-29T20:55:37.626Z,23.17
2018-05-29T20:58:05.027Z,23.15
2018-05-29T21:00:32.422Z,23.13
2018-05-29T21:02:59.831Z,23.12
2018-05-29T21:05:27.213Z,23.10
2018-05-29T21:07:54.617Z,23.11
2018-05-29T21:10:22.005Z,23.07
2018-05-29T21:12:49.404Z,23.04
2018-05-29T21:15:16.805Z,23.04
2018-05-29T21:17:44.217Z,23.04
2018-05-29T21:20:11.617Z,23.05
2018-05-29T21:22:39.011Z,23.02
2018-05-29T21:25:06.407Z,23.02
2018-05-29T21:27:33.797Z,23.01
2018-05-29T21:30:01.574Z,22.99
2018-05-29T21:32:29.011Z,23.00
2018-05-29T21:34:56.396Z,23.01
2018-05-29T21:37:23.788Z,23.00
2018-05-29T21:39:51.177Z,23.02
2018-05-29T21:42:18.583Z,23.05
2018-05-29T21:44:45.961Z,23.06
2018-05-29T21:47:13.382Z,23.07
2018-05-29T21:49:40.776Z,23.08
2018-05-29T21:52:08.505Z,23.09
2018-05-29T21:54:35.888Z,23.08
2018-05-29T21:57:03.277Z,23.07
2018-05-29T21:59:30.673Z,23.05
2018-05-29T22:01:58.064Z,23.04
2018-05-29T22:04:25.465Z,23.04
2018-05-29T22:06:52.909Z,23.01
2018-05-29T22:09:20.338Z,23.01
2018-05-29T22:11:47.729Z,23.01
2018-05-29T22:14:15.134Z,23.00
2018-05-29T22:16:42.525Z,22.98
2018-05-29T22:19:09.909Z,22.93
2018-05-29T22:21:37.320Z,22.91
2018-05-29T22:24:04.707Z,22.90
2018-05-29T22:26:32.105Z,22.89
2018-05-29T22:28:59.497Z,22.87
2018-05-29T22:31:26.889Z,22.85
2018-05-29T22:33:54.273Z,22.85
2018-05-29T22:36:21.669Z,22.84
2018-05-29T22:38:49.062Z,22.85
2018-05-29T22:41:16.754Z,22.87
2018-05-29T22:43:44.141Z,22.87
2018-05-29T22:46:11.582Z,22.85
2018-05-29T22:48:38.983Z,22.80
2018-05-29T22:51:06.361Z,22.78
2018-05-29T22:53:33.800Z,22.76
2018-05-29T22:56:01.189Z,22.76
2018-05-29T22:58:28.592Z,22.74
2018-05-29T23:00:55.990Z,22.73
2018-05-29T23:03:23.394Z,22.71
2018-05-29T23:05:50.779Z,22.70
2018-05-29T23:08:18.177Z,22.71
2018-05-29T23:10:45.581Z,22.68
2018-05-29T23:13:12.969Z,22.68
2018-05-29T23:15:40.365Z,22.68
2018-05-29T23:18:07.749Z,22.65
2018-05-29T23:20:35.149Z,22.63
2018-05-29T23:23:02.558Z,22.61
2018-05-29T23:25:29.957Z,22.59
2018-05-29T23:27:57.347Z,22.56
2018-05-29T23:30:25.117Z,22.52
2018-05-29T23:32:52.501Z,22.51
2018-05-29T23:35:19.889Z,22.49
2018-05-29T23:37:47.289Z,22.46
2018-05-29T23:40:14.677Z,22.44
2018-05-29T23:42:42.077Z,22.42
2018-05-29T23:45:09.465Z,22.37
2018-05-29T23:47:36.865Z,22.36
2018-05-29T23:50:04.257Z,22.34
2018-05-29T23:52:31.660Z,22.34
2018-05-29T23:54:59.057Z,22.34
2018-05-29T23:57:26.449Z,22.34
2018-05-29T23:59:53.849Z,22.32
